Time;durP1;ratioP1;P1;durP2;ratioP2;P2;SDS_P1;SDS_P2;PMS_P1;PMS_P2;Temp;Humidity;BMP_temperature;BMP_pressure;BME280_temperature;BME280_humidity;BME280_pressure;Samples;Min_cycle;Max_cycle;Signal;HPM_P1;HPM_P2
2024/01/24 00:01:10;;;;;;;1.73;0.63;;;9.10;99.90;;;;;;4990640;28;20079;-74
2024/01/24 00:03:35;;;;;;;3.42;0.47;;;9.20;99.90;;;;;;4990431;28;20022;-74
2024/01/24 00:06:01;;;;;;;4.45;1.00;;;9.30;99.90;;;;;;4988508;28;20034;-73
2024/01/24 00:08:26;;;;;;;3.50;0.40;;;9.30;99.90;;;;;;4994887;28;20037;-73
2024/01/24 00:10:52;;;;;;;3.08;0.40;;;9.30;99.90;;;;;;4989997;28;20104;-73
2024/01/24 00:13:18;;;;;;;3.28;0.50;;;9.30;99.90;;;;;;4988418;28;20044;-73
2024/01/24 00:15:43;;;;;;;2.85;0.65;;;9.40;99.90;;;;;;4994404;28;20398;-73
2024/01/24 00:18:09;;;;;;;1.30;0.50;;;9.40;99.90;;;;;;4995022;28;20029;-73
2024/01/24 00:20:34;;;;;;;3.38;0.47;;;9.40;99.90;;;;;;4993930;28;20080;-74
2024/01/24 00:23:00;;;;;;;1.83;0.63;;;9.40;99.90;;;;;;4994961;28;20034;-73
2024/01/24 00:25:26;;;;;;;2.15;0.40;;;9.40;99.90;;;;;;4987804;28;20034;-74
2024/01/24 00:27:51;;;;;;;4.10;0.45;;;9.50;99.90;;;;;;4990369;28;20061;-73
2024/01/24 00:30:17;;;;;;;1.95;0.90;;;9.50;99.90;;;;;;4994506;28;20088;-73
2024/01/24 00:32:42;;;;;;;2.63;0.70;;;9.50;99.90;;;;;;4992192;28;20041;-72
2024/01/24 00:35:08;;;;;;;4.45;0.75;;;9.50;99.90;;;;;;4991473;28;20030;-73
2024/01/24 00:37:34;;;;;;;3.47;0.60;;;9.60;99.90;;;;;;4992238;28;20029;-73
2024/01/24 00:39:59;;;;;;;5.03;0.70;;;9.60;99.90;;;;;;5009318;28;20133;-73
2024/01/24 00:42:25;;;;;;;3.70;0.70;;;9.70;99.90;;;;;;4993242;28;20077;-73
2024/01/24 00:44:51;;;;;;;3.15;0.50;;;9.60;99.90;;;;;;4994172;28;20061;-73
2024/01/24 00:47:20;;;;;;;2.65;0.50;;;9.70;99.90;;;;;;4990619;28;20054;-74
2024/01/24 00:49:46;;;;;;;2.45;0.55;;;9.70;99.90;;;;;;4994260;28;20501;-73
2024/01/24 00:52:12;;;;;;;2.78;0.63;;;9.80;99.90;;;;;;4993441;28;20027;-73
2024/01/24 00:54:37;;;;;;;1.80;0.60;;;9.80;99.90;;;;;;4994280;28;20053;-73
2024/01/24 00:57:03;;;;;;;3.17;0.88;;;9.80;99.90;;;;;;4992291;28;20037;-74
2024/01/24 00:59:29;;;;;;;1.73;0.52;;;9.90;99.90;;;;;;4992702;28;20150;-74
2024/01/24 01:01:54;;;;;;;3.95;0.93;;;9.90;99.90;;;;;;4985195;28;20027;-74
2024/01/24 01:04:21;;;;;;;1.27;0.50;;;9.90;99.90;;;;;;4993771;28;20026;-73
2024/01/24 01:06:46;;;;;;;4.25;0.80;;;9.90;99.90;;;;;;4985550;28;20028;-74
2024/01/24 01:09:12;;;;;;;3.30;0.52;;;9.90;99.90;;;;;;4989983;28;20105;-73
2024/01/24 01:11:38;;;;;;;4.35;0.73;;;9.90;99.90;;;;;;4993185;28;20026;-74
2024/01/24 01:14:04;;;;;;;3.15;0.90;;;9.90;99.90;;;;;;4988618;28;20033;-74
2024/01/24 01:16:29;;;;;;;2.25;0.50;;;10.00;99.90;;;;;;4990973;28;20645;-74
2024/01/24 01:18:55;;;;;;;1.63;0.70;;;10.10;99.90;;;;;;4993597;28;20026;-73
2024/01/24 01:21:20;;;;;;;3.22;0.73;;;10.10;99.90;;;;;;4993061;28;20093;-73
2024/01/24 01:23:46;;;;;;;3.88;0.70;;;10.20;99.90;;;;;;4992951;28;20029;-73
2024/01/24 01:26:12;;;;;;;1.88;0.80;;;10.20;99.90;;;;;;4993058;28;20026;-73
2024/01/24 01:28:37;;;;;;;4.25;0.70;;;10.20;99.90;;;;;;4993286;28;20030;-73
2024/01/24 01:31:03;;;;;;;2.75;0.82;;;10.20;99.90;;;;;;4993617;28;20081;-73
2024/01/24 01:33:28;;;;;;;2.70;0.50;;;10.20;99.90;;;;;;4993370;28;20063;-74
2024/01/24 01:35:54;;;;;;;2.22;0.60;;;10.20;99.90;;;;;;4991009;28;20030;-74
2024/01/24 01:38:19;;;;;;;2.53;0.60;;;10.20;99.90;;;;;;4993143;28;20026;-74
2024/01/24 01:40:45;;;;;;;3.35;0.60;;;10.20;99.90;;;;;;4993569;28;20390;-74
2024/01/24 01:43:14;;;;;;;3.92;1.00;;;10.20;99.90;;;;;;4992471;28;20023;-74
2024/01/24 01:45:41;;;;;;;4.78;0.70;;;10.30;99.90;;;;;;4992836;28;20022;-73
2024/01/24 01:48:08;;;;;;;2.50;0.55;;;10.30;99.90;;;;;;4993045;28;20026;-73
2024/01/24 01:50:34;;;;;;;2.00;0.60;;;10.30;99.90;;;;;;4993064;28;20406;-73
2024/01/24 01:53:03;;;;;;;2.88;0.55;;;10.30;99.90;;;;;;4995139;28;20030;-74
2024/01/24 01:55:30;;;;;;;7.18;0.68;;;10.30;99.90;;;;;;4986809;28;20401;-73
2024/01/24 01:57:57;;;;;;;2.42;0.50;;;10.30;99.90;;;;;;4992404;28;20461;-72
2024/01/24 02:00:24;;;;;;;0.95;0.40;;;10.30;99.90;;;;;;4986717;28;20019;-73
2024/01/24 02:02:50;;;;;;;3.72;0.85;;;10.40;99.90;;;;;;4993478;28;20022;-73
2024/01/24 02:05:16;;;;;;;3.72;0.55;;;10.30;99.90;;;;;;4993638;28;20023;-74
2024/01/24 02:07:45;;;;;;;1.83;0.77;;;10.30;99.90;;;;;;4992608;28;20414;-73
2024/01/24 02:10:12;;;;;;;2.08;0.50;;;10.30;99.90;;;;;;4993312;28;20482;-73
2024/01/24 02:12:38;;;;;;;1.65;0.40;;;10.30;99.90;;;;;;4993440;28;20030;-74
2024/01/24 02:15:04;;;;;;;2.05;0.60;;;10.20;99.90;;;;;;4991833;28;20027;-74
2024/01/24 02:17:29;;;;;;;3.17;0.73;;;10.30;99.90;;;;;;4993282;28;20465;-74
2024/01/24 02:19:55;;;;;;;1.73;0.50;;;10.30;99.90;;;;;;4993153;28;20086;-74
2024/01/24 02:22:20;;;;;;;1.13;0.30;;;10.30;99.90;;;;;;4993321;28;20026;-73
2024/01/24 02:24:46;;;;;;;2.05;0.60;;;10.30;99.90;;;;;;4993186;28;20102;-74
2024/01/24 02:27:12;;;;;;;2.20;0.55;;;10.30;99.90;;;;;;4991510;28;20425;-74
2024/01/24 02:29:37;;;;;;;1.35;0.40;;;10.20;99.90;;;;;;4992447;28;20469;-73
2024/01/24 02:32:03;;;;;;;0.82;0.50;;;10.20;99.90;;;;;;4991739;28;20027;-74
2024/01/24 02:34:29;;;;;;;1.90;0.32;;;10.10;99.90;;;;;;5004069;28;20485;-74
2024/01/24 02:36:54;;;;;;;2.17;0.50;;;10.20;99.90;;;;;;4996597;28;20034;-74
2024/01/24 02:39:21;;;;;;;4.78;0.60;;;10.20;99.90;;;;;;4999756;28;20057;-74
2024/01/24 02:41:46;;;;;;;0.68;0.30;;;10.20;99.90;;;;;;4996581;28;20023;-75
2024/01/24 02:44:12;;;;;;;0.90;0.30;;;10.20;99.90;;;;;;4996639;28;20526;-73
2024/01/24 02:46:37;;;;;;;2.50;0.40;;;10.20;99.90;;;;;;4986113;28;20113;-74
2024/01/24 02:49:03;;;;;;;2.90;0.38;;;10.20;99.90;;;;;;4989073;28;20366;-75
2024/01/24 02:51:29;;;;;;;2.45;0.60;;;10.30;99.90;;;;;;4996073;28;20142;-75
2024/01/24 02:53:54;;;;;;;2.65;0.50;;;10.20;99.90;;;;;;4996348;28;20031;-75
2024/01/24 02:56:20;;;;;;;2.03;0.40;;;10.20;99.90;;;;;;4996334;28;20081;-75
2024/01/24 02:58:46;;;;;;;1.23;0.43;;;10.20;99.90;;;;;;4993075;28;20026;-74
2024/01/24 03:01:12;;;;;;;2.08;0.40;;;10.10;99.90;;;;;;4993829;28;20019;-74
2024/01/24 03:03:39;;;;;;;2.47;0.57;;;10.20;99.90;;;;;;4998000;28;20038;-74
2024/01/24 03:06:05;;;;;;;1.77;0.63;;;10.20;99.90;;;;;;4984167;28;20050;-73
2024/01/24 03:08:54;;;;;;;1.20;0.45;;;10.20;99.90;;;;;;4994655;28;20061;-73
2024/01/24 03:11:20;;;;;;;1.02;0.50;;;10.20;99.90;;;;;;4995781;28;20026;-73
2024/01/24 03:13:46;;;;;;;3.60;0.82;;;10.10;99.90;;;;;;4995835;28;20050;-73
2024/01/24 03:16:11;;;;;;;4.53;0.73;;;10.20;99.90;;;;;;4993580;28;20084;-72
2024/01/24 03:18:38;;;;;;;1.88;0.50;;;10.10;99.90;;;;;;4988570;28;20382;-72
2024/01/24 03:21:09;;;;;;;1.70;0.45;;;10.10;99.90;;;;;;4995774;28;20034;-72
2024/01/24 03:23:38;;;;;;;2.75;0.80;;;10.10;99.90;;;;;;4995766;28;20541;-72
2024/01/24 03:26:04;;;;;;;1.67;0.50;;;10.10;99.90;;;;;;4996233;28;20023;-72
2024/01/24 03:28:30;;;;;;;1.67;0.40;;;10.10;99.90;;;;;;4995953;28;20038;-72
2024/01/24 03:30:55;;;;;;;4.15;0.63;;;10.10;99.90;;;;;;4996110;28;20385;-72
2024/01/24 03:33:21;;;;;;;1.95;0.40;;;10.10;99.90;;;;;;4995889;28;20430;-72
2024/01/24 03:35:47;;;;;;;1.50;0.60;;;10.10;99.90;;;;;;4995581;28;20025;-72
2024/01/24 03:38:13;;;;;;;1.25;0.60;;;10.10;99.90;;;;;;4997855;28;20097;-73
2024/01/24 03:40:38;;;;;;;2.47;0.50;;;10.10;99.90;;;;;;5006457;28;20401;-73
2024/01/24 03:43:05;;;;;;;1.95;0.47;;;10.10;99.90;;;;;;4995608;28;20470;-73
2024/01/24 03:45:31;;;;;;;2.35;0.43;;;10.10;99.90;;;;;;4994955;28;20050;-72
2024/01/24 03:47:56;;;;;;;1.13;0.60;;;10.10;99.90;;;;;;4995427;28;20026;-72
2024/01/24 03:50:22;;;;;;;3.35;0.88;;;10.10;99.90;;;;;;4995676;28;20389;-72
2024/01/24 03:52:48;;;;;;;1.88;0.70;;;10.10;99.90;;;;;;4995855;28;20117;-71
2024/01/24 03:55:13;;;;;;;1.10;0.40;;;10.20;99.90;;;;;;4995534;28;20010;-74
2024/01/24 03:57:40;;;;;;;1.45;0.55;;;10.10;99.90;;;;;;4995523;28;20022;-71
2024/01/24 04:00:06;;;;;;;3.33;0.60;;;10.10;99.90;;;;;;4995884;28;20014;-73
2024/01/24 04:02:32;;;;;;;4.53;0.70;;;10.10;99.90;;;;;;4994587;28;20023;-75
2024/01/24 04:04:57;;;;;;;2.35;0.40;;;10.10;99.90;;;;;;4996255;28;20030;-73
2024/01/24 04:07:23;;;;;;;4.50;1.05;;;10.10;99.90;;;;;;4995726;28;20030;-72
2024/01/24 04:09:49;;;;;;;1.75;0.52;;;10.20;99.90;;;;;;4995398;28;20030;-71
2024/01/24 04:12:14;;;;;;;3.50;0.52;;;10.20;99.90;;;;;;4996056;28;20030;-72
2024/01/24 04:14:40;;;;;;;1.83;0.52;;;10.20;99.90;;;;;;4995210;28;20029;-72
2024/01/24 04:17:05;;;;;;;3.08;0.50;;;10.20;99.90;;;;;;4995131;28;20031;-72
2024/01/24 04:19:32;;;;;;;2.35;0.60;;;10.20;99.90;;;;;;4994800;28;20129;-71
2024/01/24 04:21:57;;;;;;;0.65;0.52;;;10.30;99.90;;;;;;4995214;28;20061;-71
2024/01/24 04:24:23;;;;;;;2.03;0.52;;;10.30;99.90;;;;;;4994155;28;20081;-71
2024/01/24 04:26:48;;;;;;;4.28;0.60;;;10.30;99.90;;;;;;4994899;28;20030;-73
2024/01/24 04:29:14;;;;;;;2.63;0.65;;;10.30;99.90;;;;;;4994945;28;20104;-74
2024/01/24 04:31:42;;;;;;;1.48;0.60;;;10.20;99.90;;;;;;4994922;28;20134;-71
2024/01/24 04:34:07;;;;;;;0.93;0.52;;;10.30;99.90;;;;;;4994872;28;20417;-73
2024/01/24 04:36:33;;;;;;;2.67;0.65;;;10.20;99.90;;;;;;4994396;28;20022;-73
2024/01/24 04:38:59;;;;;;;2.67;0.70;;;10.30;99.90;;;;;;4994877;28;20030;-74
2024/01/24 04:41:25;;;;;;;4.88;0.80;;;10.30;99.90;;;;;;4995233;28;20362;-73
2024/01/24 04:43:51;;;;;;;2.30;0.88;;;10.30;99.90;;;;;;4994281;28;20026;-73
2024/01/24 04:46:17;;;;;;;3.00;0.77;;;10.40;99.90;;;;;;5009900;28;20026;-73
2024/01/24 04:48:44;;;;;;;2.95;0.73;;;10.30;99.90;;;;;;4994693;28;20034;-73
2024/01/24 04:51:11;;;;;;;1.67;0.60;;;10.40;99.90;;;;;;4994894;28;20371;-73
2024/01/24 04:53:37;;;;;;;2.72;0.68;;;10.40;99.90;;;;;;4994608;28;20034;-73
2024/01/24 04:56:03;;;;;;;2.08;0.60;;;10.40;99.90;;;;;;4994144;28;20026;-73
2024/01/24 04:58:29;;;;;;;3.95;1.02;;;10.40;99.90;;;;;;4994529;28;20026;-72
2024/01/24 05:00:54;;;;;;;3.47;1.08;;;10.40;99.90;;;;;;4993303;28;20026;-73
2024/01/24 05:03:21;;;;;;;1.15;0.60;;;10.40;99.90;;;;;;4994254;28;20062;-73
2024/01/24 05:05:46;;;;;;;1.30;0.50;;;10.30;99.90;;;;;;4994307;28;20022;-74
2024/01/24 05:08:12;;;;;;;2.05;0.60;;;10.40;99.90;;;;;;4994398;28;20026;-73
2024/01/24 05:10:38;;;;;;;3.33;0.80;;;10.30;99.90;;;;;;4994413;28;20444;-73
2024/01/24 05:13:03;;;;;;;3.25;0.75;;;10.40;99.90;;;;;;4994268;28;20109;-73
2024/01/24 05:15:29;;;;;;;3.88;0.75;;;10.40;99.90;;;;;;4994149;28;20030;-73
2024/01/24 05:17:55;;;;;;;2.35;0.65;;;10.50;99.90;;;;;;4993151;28;20058;-74
2024/01/24 05:20:20;;;;;;;3.55;1.13;;;10.50;99.90;;;;;;4992298;28;19998;-73
2024/01/24 05:22:47;;;;;;;1.92;0.60;;;10.60;99.90;;;;;;4994172;28;20084;-74
2024/01/24 05:25:12;;;;;;;1.25;0.50;;;10.60;99.90;;;;;;4994112;28;20363;-74
2024/01/24 05:27:38;;;;;;;4.82;0.90;;;10.60;99.90;;;;;;4993318;28;20038;-73
2024/01/24 05:30:04;;;;;;;2.08;0.68;;;10.60;99.90;;;;;;4994051;28;20436;-73
2024/01/24 05:32:31;;;;;;;1.52;0.68;;;10.70;99.90;;;;;;4993752;28;20027;-74
2024/01/24 05:34:57;;;;;;;2.60;0.88;;;10.70;99.90;;;;;;4992626;28;20054;-74
2024/01/24 05:37:23;;;;;;;2.63;0.50;;;10.70;99.90;;;;;;4992619;28;20497;-73
2024/01/24 05:39:48;;;;;;;5.05;0.93;;;10.70;99.90;;;;;;4992493;28;20030;-73
2024/01/24 05:42:14;;;;;;;4.00;0.70;;;10.80;99.90;;;;;;4992708;28;20474;-72
2024/01/24 05:44:39;;;;;;;1.70;1.08;;;10.80;99.90;;;;;;4992659;28;20088;-73
2024/01/24 05:47:05;;;;;;;1.60;0.60;;;10.80;99.90;;;;;;4992326;28;20030;-73
2024/01/24 05:49:35;;;;;;;2.72;0.50;;;10.80;99.90;;;;;;4992651;28;20058;-73
2024/01/24 05:52:01;;;;;;;4.32;1.00;;;10.80;99.90;;;;;;4992993;28;20485;-73
2024/01/24 05:54:26;;;;;;;3.17;0.60;;;10.90;99.90;;;;;;4992598;28;20046;-73
2024/01/24 05:56:52;;;;;;;3.15;0.77;;;10.80;99.90;;;;;;4992437;28;20397;-74
2024/01/24 05:59:18;;;;;;;4.03;0.70;;;10.90;99.90;;;;;;4992498;28;20022;-73
2024/01/24 06:01:43;;;;;;;2.05;0.70;;;10.90;99.90;;;;;;4992455;28;20388;-72
2024/01/24 06:04:09;;;;;;;2.63;0.80;;;10.90;99.90;;;;;;4992539;28;20027;-73
2024/01/24 06:06:34;;;;;;;3.05;0.68;;;10.90;99.90;;;;;;4992885;28;20026;-74
2024/01/24 06:09:00;;;;;;;2.75;0.90;;;10.90;99.90;;;;;;4990061;28;20058;-74
2024/01/24 06:11:25;;;;;;;2.22;0.95;;;10.90;99.90;;;;;;4985603;28;20041;-74
2024/01/24 06:13:51;;;;;;;4.75;0.98;;;11.00;99.90;;;;;;4996268;28;20481;-74
2024/01/24 06:16:17;;;;;;;3.83;0.60;;;10.90;99.90;;;;;;4996206;28;20117;-74
2024/01/24 06:18:42;;;;;;;2.38;0.82;;;11.00;99.90;;;;;;4993786;28;20026;-74
2024/01/24 06:21:09;;;;;;;2.22;1.00;;;11.00;99.90;;;;;;4994990;28;20138;-74
2024/01/24 06:23:34;;;;;;;3.13;1.13;;;11.00;99.90;;;;;;4996291;28;20041;-74
2024/01/24 06:26:00;;;;;;;2.72;1.10;;;11.00;99.90;;;;;;4996273;28;20030;-73
2024/01/24 06:28:26;;;;;;;3.13;0.60;;;11.10;99.90;;;;;;5011169;28;20034;-73
2024/01/24 06:30:52;;;;;;;2.15;0.70;;;11.00;99.90;;;;;;4991589;28;20444;-74
2024/01/24 06:33:18;;;;;;;2.58;0.88;;;11.10;99.90;;;;;;5000721;28;20109;-73
2024/01/24 06:35:44;;;;;;;4.72;1.20;;;11.10;99.90;;;;;;4995567;28;20460;-73
2024/01/24 06:38:09;;;;;;;1.50;0.60;;;11.10;99.90;;;;;;4995898;28;20481;-73
2024/01/24 06:40:35;;;;;;;4.68;0.82;;;11.10;99.90;;;;;;4995988;28;20466;-73
2024/01/24 06:43:00;;;;;;;2.00;0.60;;;11.10;99.90;;;;;;4995770;28;20054;-73
2024/01/24 06:45:26;;;;;;;7.15;1.52;;;11.20;99.90;;;;;;4996107;28;20026;-73
2024/01/24 06:47:52;;;;;;;2.38;0.73;;;11.20;99.90;;;;;;4995305;28;20501;-73
2024/01/24 06:50:18;;;;;;;1.42;0.70;;;11.30;99.90;;;;;;4993576;28;20034;-73
2024/01/24 06:52:43;;;;;;;1.00;0.60;;;11.30;99.90;;;;;;4994027;28;20059;-73
2024/01/24 06:55:09;;;;;;;2.42;0.90;;;11.30;99.90;;;;;;4992783;28;20030;-73
2024/01/24 06:57:35;;;;;;;2.97;0.70;;;11.30;99.90;;;;;;4990308;28;20026;-73
2024/01/24 07:00:04;;;;;;;1.52;0.70;;;11.30;99.90;;;;;;4993274;28;20038;-72
2024/01/24 07:02:30;;;;;;;1.73;0.75;;;11.40;99.90;;;;;;4991600;28;20105;-73
2024/01/24 07:04:55;;;;;;;3.22;1.23;;;11.40;99.90;;;;;;4991276;28;20114;-72
2024/01/24 07:07:21;;;;;;;2.97;1.33;;;11.40;99.90;;;;;;4986537;28;20023;-71
2024/01/24 07:09:47;;;;;;;2.63;1.08;;;11.40;99.90;;;;;;4991552;28;20030;-73
2024/01/24 07:12:13;;;;;;;2.25;0.73;;;11.50;99.90;;;;;;4994109;28;20049;-73
2024/01/24 07:14:39;;;;;;;2.35;0.98;;;11.50;99.90;;;;;;4994606;28;20022;-75
2024/01/24 07:17:05;;;;;;;1.52;0.70;;;11.50;99.90;;;;;;4994810;28;20041;-76
2024/01/24 07:19:31;;;;;;;2.15;0.85;;;11.40;99.90;;;;;;4993607;28;20023;-75
2024/01/24 07:21:56;;;;;;;3.25;0.70;;;11.50;99.90;;;;;;4994949;28;20061;-74
2024/01/24 07:24:22;;;;;;;3.28;0.80;;;11.50;99.90;;;;;;4994905;28;20024;-73
2024/01/24 07:26:47;;;;;;;3.90;0.60;;;11.50;99.90;;;;;;4992682;28;20109;-72
2024/01/24 07:29:13;;;;;;;2.28;1.17;;;11.70;99.90;;;;;;4990931;28;20089;-72
2024/01/24 07:31:39;;;;;;;2.40;0.52;;;11.90;99.90;;;;;;4985339;28;20030;-71
2024/01/24 07:34:05;;;;;;;1.42;0.65;;;12.10;99.90;;;;;;4992428;28;20088;-70
2024/01/24 07:36:31;;;;;;;1.88;0.43;;;12.20;99.90;;;;;;4994416;28;20664;-70
2024/01/24 07:38:57;;;;;;;2.00;0.45;;;12.40;99.90;;;;;;4990366;28;20027;-69
2024/01/24 07:41:23;;;;;;;3.65;0.65;;;12.50;99.90;;;;;;4994330;28;20022;-73
2024/01/24 07:43:49;;;;;;;1.63;0.65;;;12.40;99.90;;;;;;4994164;28;20385;-73
2024/01/24 07:46:14;;;;;;;0.60;0.40;;;12.30;99.90;;;;;;4987542;28;20026;-72
2024/01/24 07:48:40;;;;;;;1.13;0.80;;;12.20;99.90;;;;;;4993380;28;20473;-73
2024/01/24 07:51:05;;;;;;;0.82;0.57;;;12.10;99.90;;;;;;4994616;28;20033;-72
2024/01/24 07:53:31;;;;;;;1.95;0.50;;;12.10;99.90;;;;;;4994952;28;20477;-72
2024/01/24 07:55:57;;;;;;;1.52;0.40;;;12.00;99.90;;;;;;4993632;28;22298;-71
2024/01/24 07:58:23;;;;;;;3.03;0.40;;;12.00;99.90;;;;;;4993073;28;20539;-73
2024/01/24 08:00:48;;;;;;;0.85;0.40;;;12.00;99.90;;;;;;4994623;28;20084;-72
2024/01/24 08:03:14;;;;;;;0.85;0.40;;;12.00;99.90;;;;;;4992981;28;20089;-72
2024/01/24 08:05:39;;;;;;;2.83;0.85;;;12.00;99.90;;;;;;4994006;28;20025;-71
2024/01/24 08:08:05;;;;;;;2.25;0.30;;;12.00;99.90;;;;;;4994428;28;20022;-71
2024/01/24 08:10:31;;;;;;;2.15;0.35;;;12.00;99.90;;;;;;4995284;28;20030;-73
2024/01/24 08:12:57;;;;;;;2.50;0.30;;;12.00;99.90;;;;;;4994851;28;20030;-72
2024/01/24 08:15:22;;;;;;;0.20;0.20;;;12.10;99.90;;;;;;4994829;28;20037;-72
2024/01/24 08:17:48;;;;;;;0.77;0.30;;;12.10;99.90;;;;;;4982375;28;20023;-72
2024/01/24 08:20:14;;;;;;;0.63;0.28;;;12.10;99.90;;;;;;4978510;28;20054;-71
2024/01/24 08:22:39;;;;;;;0.85;0.30;;;12.10;99.90;;;;;;4976668;28;20034;-74
2024/01/24 08:25:06;;;;;;;0.60;0.40;;;12.10;99.90;;;;;;4980306;28;20022;-74
2024/01/24 08:27:32;;;;;;;1.00;0.30;;;12.10;99.90;;;;;;4994523;28;20018;-74
2024/01/24 08:29:57;;;;;;;0.40;0.20;;;12.10;99.90;;;;;;4992192;28;20033;-74
2024/01/24 08:32:25;;;;;;;0.30;0.20;;;12.20;99.90;;;;;;4994862;28;20049;-74
2024/01/24 08:34:51;;;;;;;3.42;0.28;;;12.20;99.90;;;;;;4995989;28;20025;-74
2024/01/24 08:37:17;;;;;;;0.85;0.30;;;12.20;99.90;;;;;;4994364;28;20030;-74
2024/01/24 08:39:42;;;;;;;0.82;0.50;;;12.30;99.90;;;;;;5010757;28;20033;-73
2024/01/24 08:42:08;;;;;;;0.40;0.25;;;12.30;99.90;;;;;;4996208;28;20061;-74
2024/01/24 08:44:34;;;;;;;1.70;0.30;;;12.30;99.90;;;;;;4995536;28;20386;-74
2024/01/24 08:46:59;;;;;;;1.50;0.40;;;12.30;99.90;;;;;;4995568;28;20030;-73
2024/01/24 08:49:25;;;;;;;0.80;0.20;;;12.40;99.90;;;;;;4995136;28;20026;-73
2024/01/24 08:51:51;;;;;;;1.35;0.38;;;12.40;99.90;;;;;;5009220;28;20080;-73
2024/01/24 08:54:16;;;;;;;0.90;0.40;;;12.40;99.90;;;;;;4993501;28;20545;-74
2024/01/24 08:56:42;;;;;;;0.55;0.30;;;12.40;99.90;;;;;;5002534;28;20029;-74
2024/01/24 08:59:07;;;;;;;1.73;0.20;;;12.50;99.90;;;;;;4994274;28;20022;-73
2024/01/24 09:01:33;;;;;;;0.70;0.32;;;12.50;99.90;;;;;;4994658;28;20025;-74
2024/01/24 09:03:59;;;;;;;0.50;0.22;;;12.50;99.90;;;;;;4994264;28;20037;-74
2024/01/24 09:06:25;;;;;;;0.22;0.20;;;12.50;99.90;;;;;;4994520;28;20073;-73
2024/01/24 09:08:54;;;;;;;0.30;0.20;;;12.50;99.90;;;;;;4993508;28;20026;-74
2024/01/24 09:11:20;;;;;;;0.20;0.20;;;12.60;99.90;;;;;;4993839;28;20152;-72
2024/01/24 09:13:47;;;;;;;0.30;0.22;;;12.60;99.90;;;;;;4993869;28;20023;-73
2024/01/24 09:16:13;;;;;;;0.20;0.20;;;12.70;99.90;;;;;;4993416;28;20023;-74
2024/01/24 09:18:39;;;;;;;0.63;0.20;;;12.70;99.90;;;;;;4993878;28;20034;-73
2024/01/24 09:21:05;;;;;;;1.08;0.20;;;12.70;99.90;;;;;;4993544;28;20466;-73
2024/01/24 09:23:31;;;;;;;0.93;0.10;;;12.70;99.90;;;;;;4993515;28;20022;-74
2024/01/24 09:25:57;;;;;;;0.50;0.30;;;12.80;99.90;;;;;;4993273;28;20058;-73
2024/01/24 09:28:22;;;;;;;0.30;0.20;;;12.80;99.90;;;;;;4994012;28;20027;-73
2024/01/24 09:30:48;;;;;;;0.85;0.20;;;12.90;99.90;;;;;;4993569;28;20030;-74
2024/01/24 09:33:13;;;;;;;1.45;0.30;;;12.90;99.90;;;;;;4993467;28;20117;-74
2024/01/24 09:35:40;;;;;;;0.30;0.20;;;12.90;99.90;;;;;;4993031;28;20109;-73
2024/01/24 09:38:06;;;;;;;0.20;0.20;;;12.80;99.90;;;;;;4992642;28;20022;-74
2024/01/24 09:40:32;;;;;;;0.52;0.20;;;12.90;99.90;;;;;;4993452;28;20026;-73
2024/01/24 09:43:01;;;;;;;0.30;0.20;;;12.90;99.90;;;;;;4992621;28;20026;-74
2024/01/24 09:45:28;;;;;;;1.27;0.30;;;12.90;99.90;;;;;;4993506;28;20046;-74
2024/01/24 09:47:57;;;;;;;0.20;0.20;;;12.90;99.90;;;;;;4992711;28;20033;-73
2024/01/24 09:50:23;;;;;;;0.80;0.25;;;12.90;99.90;;;;;;4979005;28;20038;-74
2024/01/24 09:52:50;;;;;;;0.20;0.20;;;12.90;99.90;;;;;;4976324;28;20065;-73
2024/01/24 09:55:18;;;;;;;0.52;0.28;;;12.90;99.90;;;;;;4993200;28;20030;-73
2024/01/24 09:57:45;;;;;;;0.20;0.20;;;12.90;99.90;;;;;;4993040;28;20033;-73
2024/01/24 10:00:14;;;;;;;0.38;0.20;;;12.90;99.90;;;;;;4992848;28;20101;-73
2024/01/24 10:02:43;;;;;;;1.00;0.60;;;12.90;99.90;;;;;;4992639;28;20034;-73
2024/01/24 10:05:12;;;;;;;0.30;0.30;;;12.90;99.90;;;;;;4992454;28;20026;-73
2024/01/24 10:07:38;;;;;;;0.30;0.20;;;12.90;99.90;;;;;;4992463;28;20026;-73
2024/01/24 10:10:09;;;;;;;0.70;0.30;;;12.90;99.90;;;;;;4989873;28;20022;-73
2024/01/24 10:12:35;;;;;;;0.75;0.47;;;12.90;99.90;;;;;;4992952;28;20027;-74
2024/01/24 10:15:01;;;;;;;1.90;0.10;;;12.90;99.90;;;;;;4992666;28;20026;-74
2024/01/24 10:17:28;;;;;;;5.43;0.45;;;12.90;99.90;;;;;;4992901;28;20026;-73
2024/01/24 10:19:53;;;;;;;0.22;0.20;;;12.90;99.90;;;;;;4992909;28;20022;-73
2024/01/24 10:22:21;;;;;;;1.02;0.20;;;12.90;99.90;;;;;;4993088;28;20026;-74
2024/01/24 10:24:48;;;;;;;0.43;0.10;;;13.00;99.90;;;;;;4992697;28;20041;-74
2024/01/24 10:27:14;;;;;;;1.02;0.40;;;13.00;99.90;;;;;;4992837;28;20067;-74
2024/01/24 10:29:40;;;;;;;0.57;0.20;;;13.10;99.90;;;;;;4993004;28;20452;-74
2024/01/24 10:32:12;;;;;;;0.57;0.30;;;13.20;99.90;;;;;;4992153;28;20033;-74
2024/01/24 10:34:40;;;;;;;0.55;0.20;;;13.20;99.90;;;;;;4992143;28;20065;-74
2024/01/24 10:37:06;;;;;;;12.48;1.70;;;13.30;99.90;;;;;;4992054;28;20038;-74
2024/01/24 10:39:35;;;;;;;1.15;0.30;;;13.30;99.90;;;;;;4992132;28;20106;-73
2024/01/24 10:42:09;;;;;;;0.55;0.22;;;13.30;99.90;;;;;;4992085;28;20093;-72
2024/01/24 10:44:35;;;;;;;2.67;0.40;;;13.20;99.90;;;;;;4981542;28;20061;-73
2024/01/24 10:47:02;;;;;;;0.38;0.20;;;13.20;99.90;;;;;;4973043;28;20042;-73
2024/01/24 10:49:29;;;;;;;0.40;0.22;;;13.20;99.90;;;;;;4988609;28;20030;-73
2024/01/24 10:51:56;;;;;;;0.60;0.25;;;13.30;99.90;;;;;;4989072;28;20076;-73
2024/01/24 10:54:22;;;;;;;0.35;0.25;;;13.30;99.90;;;;;;4989221;28;20076;-74
2024/01/24 10:56:50;;;;;;;0.82;0.30;;;13.30;99.90;;;;;;4993133;28;20116;-74
2024/01/24 10:59:19;;;;;;;1.42;0.30;;;13.30;99.90;;;;;;4994043;28;20020;-73
2024/01/24 11:01:46;;;;;;;1.95;0.50;;;13.30;99.90;;;;;;4993566;28;20022;-73
2024/01/24 11:04:21;;;;;;;1.35;0.38;;;13.30;99.90;;;;;;4993152;28;20049;-74
2024/01/24 11:07:04;;;;;;;0.50;0.30;;;13.30;99.90;;;;;;4995103;28;20027;-74
2024/01/24 11:10:03;;;;;;;0.32;0.20;;;13.20;99.90;;;;;;4994008;28;20093;-73
2024/01/24 11:12:30;;;;;;;0.75;0.38;;;13.20;99.90;;;;;;4994572;28;20030;-74
2024/01/24 11:15:05;;;;;;;2.15;0.30;;;13.20;99.90;;;;;;4994263;28;20112;-74
2024/01/24 11:17:32;;;;;;;0.40;0.20;;;13.10;99.90;;;;;;4994648;28;20033;-76
2024/01/24 11:19:58;;;;;;;1.10;0.40;;;13.10;99.90;;;;;;4993128;28;20023;-74
2024/01/24 11:22:25;;;;;;;1.42;0.52;;;13.10;99.90;;;;;;4994119;28;20030;-74
2024/01/24 11:24:52;;;;;;;0.80;0.40;;;13.10;99.90;;;;;;4994848;28;20022;-74
2024/01/24 11:27:35;;;;;;;0.57;0.30;;;13.20;99.90;;;;;;4994155;28;20026;-74
2024/01/24 11:30:16;;;;;;;0.25;0.20;;;13.30;99.90;;;;;;4994509;28;20026;-73
2024/01/24 11:32:45;;;;;;;0.60;0.40;;;13.40;99.90;;;;;;4994215;28;20347;-74
2024/01/24 11:35:26;;;;;;;0.77;0.20;;;13.40;99.90;;;;;;4994389;28;20026;-74
2024/01/24 11:37:55;;;;;;;1.55;0.25;;;13.50;99.90;;;;;;4994332;28;20148;-73
2024/01/24 11:40:24;;;;;;;0.32;0.20;;;13.50;99.90;;;;;;4994412;28;20097;-73
2024/01/24 11:42:56;;;;;;;0.45;0.35;;;13.50;99.90;;;;;;4983182;28;20398;-73
2024/01/24 11:45:24;;;;;;;0.30;0.22;;;13.50;99.90;;;;;;4981358;28;20014;-73
2024/01/24 11:47:51;;;;;;;0.52;0.30;;;13.50;99.90;;;;;;4995051;28;20022;-73
2024/01/24 11:50:17;;;;;;;0.68;0.38;;;13.50;99.90;;;;;;4995083;28;20101;-74
2024/01/24 11:52:44;;;;;;;1.25;0.40;;;13.50;99.90;;;;;;4994513;28;20057;-73
2024/01/24 11:55:10;;;;;;;0.57;0.30;;;13.40;99.90;;;;;;4994423;28;20033;-74
2024/01/24 11:57:37;;;;;;;0.50;0.20;;;13.40;99.90;;;;;;4994182;28;20023;-73
2024/01/24 12:00:06;;;;;;;0.52;0.20;;;13.40;99.90;;;;;;4994825;28;20022;-73
2024/01/24 12:02:32;;;;;;;1.55;0.30;;;13.40;99.90;;;;;;4994562;28;20521;-73
2024/01/24 12:04:58;;;;;;;0.30;0.20;;;13.30;99.90;;;;;;4994619;28;20053;-74
2024/01/24 12:07:23;;;;;;;0.13;0.13;;;13.30;99.90;;;;;;4993893;28;20030;-73
2024/01/24 12:09:50;;;;;;;0.30;0.20;;;13.30;99.90;;;;;;4994327;28;20035;-73
2024/01/24 12:12:16;;;;;;;0.55;0.40;;;13.30;99.90;;;;;;4994225;28;20030;-73
2024/01/24 12:14:42;;;;;;;0.47;0.25;;;13.30;99.90;;;;;;4993868;28;20486;-73
2024/01/24 12:17:08;;;;;;;0.82;0.30;;;13.30;99.90;;;;;;4994220;28;20117;-73
2024/01/24 12:19:34;;;;;;;0.70;0.40;;;13.30;99.90;;;;;;4994503;28;20065;-73
2024/01/24 12:22:00;;;;;;;0.70;0.20;;;13.30;99.90;;;;;;4994704;28;20034;-73
2024/01/24 12:24:29;;;;;;;1.23;0.50;;;13.30;99.90;;;;;;4995174;28;20385;-73
2024/01/24 12:26:55;;;;;;;1.05;0.52;;;13.40;99.90;;;;;;4974092;28;20106;-73
2024/01/24 12:29:21;;;;;;;0.90;0.60;;;13.40;99.90;;;;;;4982194;28;20022;-72
2024/01/24 12:31:49;;;;;;;2.58;0.40;;;13.40;99.90;;;;;;4994281;28;20475;-73
2024/01/24 12:34:15;;;;;;;1.02;0.30;;;13.40;99.90;;;;;;4994094;28;20054;-72
2024/01/24 12:36:44;;;;;;;1.80;0.38;;;13.40;99.90;;;;;;4994313;28;20509;-73
2024/01/24 12:39:09;;;;;;;1.33;0.30;;;13.50;99.90;;;;;;4994048;28;20038;-73
2024/01/24 12:41:35;;;;;;;0.63;0.20;;;13.40;99.90;;;;;;4994780;28;20062;-72
2024/01/24 12:44:01;;;;;;;0.75;0.30;;;13.50;99.90;;;;;;4994028;28;20101;-72